createdAt,value
2022-10-29T00:02:07.885Z,80.69
2022-10-29T00:04:37.425Z,80.49
2022-10-29T00:07:05.729Z,80.60
2022-10-29T00:09:33.915Z,81.14
2022-10-29T00:12:02.018Z,81.38
2022-10-29T00:14:30.224Z,81.31
2022-10-29T00:16:58.385Z,81.11
2022-10-29T00:19:27.818Z,80.72
2022-10-29T00:21:57.427Z,80.74
2022-10-29T00:24:25.644Z,80.93
2022-10-29T00:26:53.864Z,81.01
2022-10-29T00:29:22.038Z,81.42
2022-10-29T00:31:51.324Z,81.49
2022-10-29T00:34:19.585Z,81.20
2022-10-29T00:36:47.702Z,81.01
2022-10-29T00:39:17.860Z,81.09
2022-10-29T00:41:46.154Z,81.25
2022-10-29T00:44:30.841Z,81.14
2022-10-29T00:47:03.934Z,81.06
2022-10-29T00:49:34.328Z,81.20
2022-10-29T00:52:04.487Z,81.21
2022-10-29T00:54:36.896Z,81.23
2022-10-29T00:57:08.927Z,80.96
2022-10-29T00:59:37.295Z,81.09
2022-10-29T01:02:05.582Z,81.14
2022-10-29T01:04:35.131Z,81.03
2022-10-29T01:07:04.431Z,81.15
2022-10-29T01:09:34.291Z,81.73
2022-10-29T01:12:19.786Z,81.79
2022-10-29T01:14:54.375Z,81.48
2022-10-29T01:17:29.983Z,81.49
2022-10-29T01:20:28.050Z,82.06
2022-10-29T01:23:12.486Z,81.86
2022-10-29T01:26:09.973Z,81.77
2022-10-29T01:28:54.304Z,81.27
2022-10-29T01:31:32.535Z,81.19
2022-10-29T01:34:07.917Z,81.37
2022-10-29T01:36:45.313Z,81.46
2022-10-29T01:39:22.362Z,81.33
2022-10-29T01:41:57.526Z,81.54
2022-10-29T01:44:35.580Z,81.61
2022-10-29T01:47:06.864Z,81.40
2022-10-29T01:49:39.585Z,80.96
2022-10-29T01:52:10.278Z,81.17
2022-10-29T01:54:42.128Z,80.87
2022-10-29T01:57:31.796Z,81.46
2022-10-29T02:00:03.012Z,81.33
2022-10-29T02:03:02.116Z,81.32
2022-10-29T02:05:35.741Z,81.37
2022-10-29T02:08:19.337Z,81.49
2022-10-29T02:10:54.589Z,81.34
2022-10-29T02:13:31.695Z,81.19
2022-10-29T02:16:01.480Z,81.23
2022-10-29T02:18:31.262Z,81.86
2022-10-29T02:20:59.490Z,81.84
2022-10-29T02:23:29.052Z,81.34
2022-10-29T02:25:57.242Z,81.33
2022-10-29T02:28:25.758Z,81.21
2022-10-29T02:30:53.840Z,81.11
2022-10-29T02:33:22.044Z,81.13
2022-10-29T02:35:51.608Z,81.15
2022-10-29T02:38:19.864Z,81.20
2022-10-29T02:40:47.952Z,81.33
2022-10-29T02:43:16.263Z,80.97
2022-10-29T02:45:44.468Z,80.95
2022-10-29T02:48:12.589Z,80.80
2022-10-29T02:50:40.680Z,80.59
2022-10-29T02:53:10.216Z,80.38
2022-10-29T02:55:38.376Z,80.28
2022-10-29T02:58:06.473Z,80.07
2022-10-29T03:00:34.582Z,79.82
2022-10-29T03:03:02.728Z,79.69
2022-10-29T03:05:30.881Z,79.81
2022-10-29T03:07:59.027Z,80.19
2022-10-29T03:10:28.490Z,80.54
2022-10-29T03:12:59.422Z,80.34
2022-10-29T03:15:27.886Z,80.11
2022-10-29T03:17:56.318Z,79.79
2022-10-29T03:20:24.680Z,79.78
2022-10-29T03:22:52.807Z,79.82
2022-10-29T03:25:20.979Z,79.91
2022-10-29T03:27:50.439Z,80.20
2022-10-29T03:30:18.856Z,80.15
2022-10-29T03:32:49.238Z,80.26
2022-10-29T03:35:17.584Z,80.56
2022-10-29T03:37:45.726Z,80.49
2022-10-29T03:40:14.089Z,80.60
2022-10-29T03:42:42.189Z,80.41
2022-10-29T03:45:12.520Z,80.29
2022-10-29T03:47:40.861Z,80.07
2022-10-29T03:50:10.205Z,80.15
2022-10-29T03:52:38.459Z,80.08
2022-10-29T03:55:07.652Z,79.95
2022-10-29T03:57:35.774Z,79.85
2022-10-29T04:00:05.875Z,79.82
2022-10-29T04:02:42.442Z,79.72
2022-10-29T04:05:13.388Z,79.56
2022-10-29T04:07:41.521Z,79.14
2022-10-29T04:10:10.351Z,78.89
2022-10-29T04:12:38.471Z,78.72
2022-10-29T04:15:08.061Z,78.65
2022-10-29T04:17:36.206Z,78.33
2022-10-29T04:20:13.762Z,78.25
2022-10-29T04:28:42.927Z,78.39
2022-10-29T04:31:13.753Z,78.47
2022-10-29T04:33:41.997Z,78.63
2022-10-29T04:36:11.846Z,78.66
2022-10-29T04:38:40.200Z,78.63
2022-10-29T04:41:08.278Z,78.65
2022-10-29T04:43:36.927Z,78.57
2022-10-29T04:46:05.262Z,78.66
2022-10-29T04:48:33.507Z,78.75
2022-10-29T04:51:01.748Z,78.68
2022-10-29T04:53:32.189Z,78.69
2022-10-29T04:56:01.651Z,78.67
2022-10-29T04:58:29.933Z,78.59
2022-10-29T05:01:02.512Z,78.53
2022-10-29T05:03:30.854Z,78.47
2022-10-29T05:05:59.074Z,78.33
2022-10-29T05:08:27.310Z,78.40
2022-10-29T05:10:56.884Z,78.37
2022-10-29T05:13:24.967Z,78.41
2022-10-29T05:15:53.753Z,78.18
2022-10-29T05:18:22.128Z,78.11
2022-10-29T05:20:54.129Z,78.06
2022-10-29T05:23:22.550Z,78.04
2022-10-29T05:25:52.435Z,78.03
2022-10-29T05:28:24.074Z,78.06
2022-10-29T05:30:53.610Z,78.12
2022-10-29T05:33:23.082Z,78.20
2022-10-29T05:35:51.997Z,78.16
2022-10-29T05:38:20.795Z,78.24
2022-10-29T05:40:49.074Z,78.34
2022-10-29T05:43:18.408Z,78.50
2022-10-29T05:45:47.875Z,78.75
2022-10-29T05:48:15.951Z,79.04
2022-10-29T05:50:44.150Z,79.45
2022-10-29T05:53:13.605Z,79.69
2022-10-29T05:55:42.779Z,79.87
2022-10-29T05:58:13.429Z,79.95
2022-10-29T06:00:43.534Z,80.05
2022-10-29T06:03:16.171Z,80.27
2022-10-29T06:05:44.572Z,80.49
2022-10-29T06:08:12.693Z,80.32
2022-10-29T06:10:40.800Z,80.47
2022-10-29T06:13:12.977Z,80.46
2022-10-29T06:15:42.252Z,80.59
2022-10-29T06:18:10.813Z,80.63
2022-10-29T06:20:41.009Z,80.56
2022-10-29T06:23:09.210Z,80.70
2022-10-29T06:25:37.475Z,80.73
2022-10-29T06:28:07.667Z,80.84
2022-10-29T06:30:37.427Z,80.79
2022-10-29T06:33:06.280Z,80.93
2022-10-29T06:38:12.390Z,80.64
2022-10-29T06:40:41.057Z,80.47
2022-10-29T06:43:11.501Z,80.31
2022-10-29T06:45:39.643Z,80.24
2022-10-29T06:48:08.305Z,80.20
2022-10-29T06:50:36.509Z,80.40
2022-10-29T06:53:06.761Z,80.30
2022-10-29T06:55:36.472Z,80.07
2022-10-29T06:58:07.431Z,79.96
2022-10-29T07:00:36.199Z,79.92
2022-10-29T07:03:05.158Z,79.97
2022-10-29T07:05:33.762Z,79.79
2022-10-29T07:08:02.607Z,79.59
2022-10-29T07:10:32.427Z,79.47
2022-10-29T07:13:03.180Z,79.17
2022-10-29T07:15:34.249Z,78.87
2022-10-29T07:18:04.474Z,78.82
2022-10-29T07:20:34.959Z,78.73
2022-10-29T07:23:03.229Z,78.68
2022-10-29T07:25:32.786Z,78.57
2022-10-29T07:28:05.848Z,78.45
2022-10-29T07:30:34.559Z,78.35
2022-10-29T07:33:05.223Z,78.10
2022-10-29T07:35:36.345Z,77.62
2022-10-29T07:38:10.730Z,77.34
2022-10-29T07:40:40.944Z,77.17
2022-10-29T07:43:11.086Z,76.89
2022-10-29T07:45:39.277Z,76.93
2022-10-29T07:48:08.837Z,76.79
2022-10-29T07:50:38.555Z,76.67
2022-10-29T07:53:08.446Z,76.48
2022-10-29T07:55:37.066Z,76.50
2022-10-29T07:58:07.553Z,76.51
2022-10-29T08:00:39.582Z,76.33
2022-10-29T08:03:08.318Z,76.11
2022-10-29T08:05:36.478Z,76.28
2022-10-29T08:08:05.740Z,76.02
2022-10-29T08:10:35.433Z,75.97
2022-10-29T08:13:05.800Z,75.67
2022-10-29T08:15:34.917Z,75.50
2022-10-29T08:18:11.956Z,75.53
2022-10-29T08:20:40.304Z,75.21
2022-10-29T08:23:08.601Z,75.46
2022-10-29T08:25:41.445Z,75.28
2022-10-29T08:28:11.458Z,75.17
2022-10-29T08:30:39.944Z,75.12
2022-10-29T08:33:10.797Z,75.15
2022-10-29T08:35:39.048Z,75.38
2022-10-29T08:38:07.368Z,75.27
2022-10-29T08:40:45.427Z,75.10
2022-10-29T08:43:47.195Z,75.33
2022-10-29T08:46:21.084Z,75.47
2022-10-29T08:48:55.058Z,75.28
2022-10-29T08:51:26.934Z,74.83
2022-10-29T08:56:50.020Z,74.85
2022-10-29T08:59:20.182Z,74.93
2022-10-29T09:01:49.081Z,74.81
2022-10-29T09:04:25.702Z,74.91
2022-10-29T09:07:07.710Z,74.63
2022-10-29T09:09:41.521Z,74.77
2022-10-29T09:12:25.378Z,74.89
2022-10-29T09:15:22.417Z,74.90
2022-10-29T09:18:03.602Z,74.91
2022-10-29T09:20:47.743Z,74.72
2022-10-29T09:23:24.889Z,75.09
2022-10-29T09:25:57.448Z,74.89
2022-10-29T09:28:38.787Z,74.72
2022-10-29T09:31:14.257Z,74.57
2022-10-29T09:33:42.872Z,74.51
2022-10-29T09:36:17.398Z,74.12
2022-10-29T09:38:53.648Z,74.24
2022-10-29T09:41:23.839Z,74.03
2022-10-29T09:44:02.108Z,73.67
2022-10-29T09:46:40.630Z,73.70
2022-10-29T09:49:26.840Z,73.82
2022-10-29T09:52:01.761Z,73.52
2022-10-29T09:54:31.970Z,73.67
2022-10-29T09:57:01.941Z,73.06
2022-10-29T09:59:33.808Z,73.05
2022-10-29T10:02:02.286Z,72.75
2022-10-29T10:04:35.679Z,72.61
2022-10-29T10:07:08.413Z,72.20
2022-10-29T10:09:56.056Z,71.74
2022-10-29T10:12:27.021Z,72.20
2022-10-29T10:15:08.630Z,72.25
2022-10-29T10:17:56.349Z,72.24
2022-10-29T10:20:38.108Z,71.92
2022-10-29T10:23:25.668Z,72.09
2022-10-29T10:25:58.776Z,71.24
2022-10-29T10:28:31.776Z,71.22
2022-10-29T10:31:13.237Z,71.51
2022-10-29T10:33:52.643Z,71.47
2022-10-29T10:36:23.449Z,70.97
2022-10-29T10:38:55.184Z,71.11
2022-10-29T10:41:26.922Z,70.95
2022-10-29T10:44:00.401Z,70.58
2022-10-29T10:46:31.837Z,70.17
2022-10-29T10:49:07.823Z,70.55
2022-10-29T10:51:38.205Z,70.09
2022-10-29T10:54:27.069Z,70.55
2022-10-29T10:56:59.391Z,70.55
2022-10-29T10:59:38.156Z,70.37
2022-10-29T11:02:09.624Z,71.03
2022-10-29T11:04:42.327Z,69.98
2022-10-29T11:07:14.824Z,70.10
2022-10-29T11:09:47.840Z,69.08
2022-10-29T11:12:26.940Z,69.35
2022-10-29T11:15:00.409Z,69.20
2022-10-29T11:17:31.980Z,69.41
2022-10-29T11:20:03.302Z,68.75
2022-10-29T11:22:35.487Z,69.25
2022-10-29T11:25:15.594Z,69.13
2022-10-29T11:27:52.761Z,69.34
2022-10-29T11:30:21.763Z,68.78
2022-10-29T11:32:59.576Z,69.33
2022-10-29T11:35:38.930Z,68.93
2022-10-29T11:38:13.360Z,68.39
2022-10-29T11:40:49.230Z,68.75
2022-10-29T11:43:20.649Z,68.75
2022-10-29T11:45:59.278Z,68.48
2022-10-29T11:48:41.952Z,67.52
2022-10-29T11:51:22.530Z,67.37
2022-10-29T11:54:02.505Z,67.81
2022-10-29T11:56:47.317Z,67.43
2022-10-29T11:59:30.875Z,66.99
2022-10-29T12:02:12.667Z,66.68
2022-10-29T12:04:47.852Z,66.59
2022-10-29T12:07:27.681Z,66.90
2022-10-29T12:10:11.308Z,65.90
2022-10-29T12:12:48.435Z,65.82
2022-10-29T12:15:24.463Z,65.92
2022-10-29T12:18:01.910Z,66.36
2022-10-29T12:20:38.153Z,67.25
2022-10-29T12:23:19.082Z,66.85
2022-10-29T12:26:00.785Z,67.79
2022-10-29T12:28:39.620Z,67.19
2022-10-29T12:31:21.610Z,67.53
2022-10-29T12:33:52.858Z,67.49
2022-10-29T12:36:29.008Z,67.48
2022-10-29T12:38:58.563Z,67.20
2022-10-29T12:41:32.282Z,67.46
2022-10-29T12:44:09.441Z,69.97
2022-10-29T12:46:41.967Z,67.06
2022-10-29T12:49:15.114Z,67.86
2022-10-29T12:51:51.173Z,67.76
2022-10-29T12:54:38.588Z,67.35
2022-10-29T12:57:21.023Z,68.23
2022-10-29T12:59:53.017Z,67.59
2022-10-29T13:02:45.126Z,67.52
2022-10-29T13:05:16.847Z,66.72
2022-10-29T13:08:27.859Z,66.85
2022-10-29T13:10:57.956Z,66.75
2022-10-29T13:13:56.161Z,66.34
2022-10-29T13:16:31.604Z,67.48
2022-10-29T13:19:35.812Z,67.32
2022-10-29T13:22:27.808Z,66.78
2022-10-29T13:25:42.347Z,66.71
2022-10-29T13:28:52.063Z,66.79
2022-10-29T13:31:51.029Z,66.14
2022-10-29T13:34:50.931Z,66.85
2022-10-29T13:37:38.657Z,66.84
2022-10-29T13:40:55.151Z,66.65
2022-10-29T13:43:24.342Z,66.30
2022-10-29T13:46:03.449Z,66.81
2022-10-29T13:48:35.910Z,66.30
2022-10-29T13:51:09.281Z,66.36
2022-10-29T13:53:43.283Z,66.07
2022-10-29T13:56:17.602Z,66.11
2022-10-29T13:58:48.987Z,66.69
2022-10-29T14:01:20.184Z,65.79
2022-10-29T14:03:58.791Z,66.58
2022-10-29T14:06:30.607Z,66.34
2022-10-29T14:09:11.194Z,66.33
2022-10-29T14:11:45.074Z,66.81
2022-10-29T14:14:34.634Z,66.87
2022-10-29T14:17:14.075Z,66.72
2022-10-29T14:19:48.858Z,66.81
2022-10-29T14:22:33.538Z,67.24
2022-10-29T14:25:02.982Z,67.37
2022-10-29T14:27:31.582Z,67.26
2022-10-29T14:30:20.555Z,67.19
2022-10-29T14:32:48.927Z,67.13
2022-10-29T14:35:18.551Z,67.55
2022-10-29T14:37:49.311Z,66.95
2022-10-29T14:40:23.149Z,67.33
2022-10-29T14:42:55.016Z,66.63
2022-10-29T14:45:27.640Z,68.01
2022-10-29T14:47:58.248Z,67.71
2022-10-29T14:50:29.202Z,67.81
2022-10-29T14:53:00.014Z,68.10
2022-10-29T14:55:32.271Z,67.59
2022-10-29T14:58:05.867Z,67.45
2022-10-29T15:00:37.111Z,67.91
2022-10-29T15:03:07.703Z,67.58
2022-10-29T15:05:38.869Z,68.33
2022-10-29T15:08:15.433Z,67.30
2022-10-29T15:10:48.244Z,67.96
2022-10-29T15:13:24.072Z,67.63
2022-10-29T15:15:56.502Z,67.29
2022-10-29T15:18:26.310Z,66.81
2022-10-29T15:20:57.210Z,66.11
2022-10-29T15:23:28.300Z,65.95
2022-10-29T15:26:02.671Z,67.30
2022-10-29T15:28:32.875Z,66.15
2022-10-29T15:31:03.754Z,68.59
2022-10-29T15:33:33.453Z,66.46
2022-10-29T15:36:04.729Z,66.46
2022-10-29T15:39:19.379Z,65.74
2022-10-29T15:41:49.879Z,67.14
2022-10-29T15:44:39.288Z,66.45
2022-10-29T17:02:40.629Z,68.52
2022-10-29T17:05:09.579Z,68.42
2022-10-29T17:07:37.818Z,68.65
2022-10-29T17:10:07.794Z,68.45
2022-10-29T17:12:36.384Z,69.20
2022-10-29T17:15:05.243Z,69.23
2022-10-29T17:17:33.407Z,69.07
2022-10-29T17:20:02.957Z,68.91
2022-10-29T17:22:31.653Z,68.68
2022-10-29T17:24:59.844Z,69.14
2022-10-29T17:27:27.989Z,68.82
2022-10-29T17:29:56.453Z,69.20
2022-10-29T17:32:24.856Z,69.15
2022-10-29T17:34:52.969Z,68.92
2022-10-29T17:37:22.545Z,69.09
2022-10-29T17:39:50.657Z,69.20
2022-10-29T17:42:18.993Z,68.52
2022-10-29T17:44:47.172Z,69.21
2022-10-29T17:47:15.353Z,69.45
2022-10-29T17:49:43.513Z,69.15
2022-10-29T17:52:14.156Z,69.13
2022-10-29T17:54:43.677Z,69.40
2022-10-29T17:57:11.824Z,69.33
2022-10-29T17:59:40.054Z,69.92
2022-10-29T18:02:10.985Z,69.33
2022-10-29T18:04:39.359Z,69.57
2022-10-29T18:07:07.742Z,69.55
2022-10-29T18:09:36.040Z,69.74
2022-10-29T18:12:05.989Z,69.78
2022-10-29T18:14:35.737Z,69.44
2022-10-29T18:17:04.061Z,69.54
2022-10-29T18:19:34.802Z,69.58
2022-10-29T18:22:08.022Z,69.55
2022-10-29T18:24:41.440Z,69.78
2022-10-29T18:27:11.100Z,69.84
2022-10-29T18:29:39.900Z,69.88
2022-10-29T18:32:10.764Z,69.86
2022-10-29T18:34:39.151Z,70.31
2022-10-29T18:37:10.733Z,69.99
2022-10-29T18:39:40.024Z,70.16
2022-10-29T18:42:08.229Z,70.09
2022-10-29T18:44:39.172Z,70.03
2022-10-29T18:47:07.513Z,70.13
2022-10-29T18:49:36.638Z,69.96
2022-10-29T18:52:05.065Z,70.07
2022-10-29T18:54:33.901Z,70.31
2022-10-29T18:57:02.537Z,70.19
2022-10-29T18:59:34.524Z,69.97
2022-10-29T19:02:04.242Z,70.06
2022-10-29T19:04:32.754Z,69.85
2022-10-29T19:07:00.988Z,70.34
2022-10-29T19:09:30.152Z,70.10
2022-10-29T19:11:59.551Z,70.04
2022-10-29T19:14:28.039Z,70.60
2022-10-29T19:16:56.283Z,70.27
2022-10-29T19:19:26.395Z,70.35
2022-10-29T19:21:54.596Z,70.35
2022-10-29T19:24:22.997Z,70.27
2022-10-29T19:26:51.267Z,70.31
2022-10-29T19:29:19.546Z,70.67
2022-10-29T19:31:49.690Z,70.73
2022-10-29T19:34:18.036Z,70.95
2022-10-29T19:36:47.739Z,70.55
2022-10-29T19:39:17.665Z,70.65
2022-10-29T19:41:48.892Z,70.74
2022-10-29T19:44:17.163Z,70.64
2022-10-29T19:46:45.315Z,70.48
2022-10-29T19:49:13.456Z,70.62
2022-10-29T19:51:41.609Z,70.77
2022-10-29T19:54:11.220Z,70.85
2022-10-29T19:56:39.458Z,70.76
2022-10-29T19:59:07.740Z,71.03
2022-10-29T20:01:38.360Z,70.90
2022-10-29T20:04:06.848Z,70.96
2022-10-29T20:06:35.282Z,70.93
2022-10-29T20:09:03.579Z,71.13
2022-10-29T20:11:33.251Z,71.30
2022-10-29T20:14:01.681Z,71.22
2022-10-29T20:16:30.074Z,71.39
2022-10-29T20:18:59.096Z,71.42
2022-10-29T20:21:27.295Z,71.49
2022-10-29T20:23:56.075Z,71.76
2022-10-29T20:26:24.365Z,71.72
2022-10-29T20:28:53.973Z,71.66
2022-10-29T20:31:29.995Z,71.72
2022-10-29T20:34:00.630Z,71.91
2022-10-29T20:36:30.841Z,71.80
2022-10-29T20:38:59.886Z,71.90
2022-10-29T20:41:28.685Z,71.92
2022-10-29T20:43:59.939Z,72.19
2022-10-29T20:46:28.839Z,71.90
2022-10-29T20:48:57.088Z,71.99
2022-10-29T20:51:26.169Z,72.03
2022-10-29T20:53:55.369Z,72.13
2022-10-29T20:56:25.455Z,72.22
2022-10-29T20:58:53.788Z,72.13
2022-10-29T21:01:25.880Z,72.25
2022-10-29T21:03:54.265Z,72.48
2022-10-29T21:06:22.703Z,72.30
2022-10-29T21:08:53.267Z,72.36
2022-10-29T21:11:22.628Z,72.32
2022-10-29T21:13:51.239Z,72.48
2022-10-29T21:16:21.422Z,72.40
2022-10-29T21:18:52.853Z,72.54
2022-10-29T21:21:21.695Z,72.43
2022-10-29T21:23:50.447Z,72.70
2022-10-29T21:26:21.040Z,72.51
2022-10-29T21:28:49.939Z,72.74
2022-10-29T21:31:18.984Z,72.81
2022-10-29T21:33:49.699Z,72.60
2022-10-29T21:36:19.551Z,72.83
2022-10-29T21:38:48.068Z,72.83
2022-10-29T21:41:16.564Z,72.93
2022-10-29T21:43:45.007Z,72.92
2022-10-29T21:46:13.248Z,73.02
2022-10-29T21:48:41.556Z,72.93
2022-10-29T21:51:12.638Z,73.01
2022-10-29T21:53:42.413Z,72.98
2022-10-29T21:56:13.822Z,72.91
2022-10-29T21:58:42.457Z,72.99
2022-10-29T22:01:15.616Z,72.99
2022-10-29T22:03:45.638Z,73.06
2022-10-29T22:06:20.237Z,73.07
2022-10-29T22:08:56.034Z,73.15
2022-10-29T22:11:25.008Z,73.05
2022-10-29T22:13:54.044Z,73.14
2022-10-29T22:16:24.072Z,73.06
2022-10-29T22:18:52.201Z,73.16
2022-10-29T22:21:22.939Z,73.17
2022-10-29T22:23:54.043Z,73.28
2022-10-29T22:26:24.664Z,73.29
2022-10-29T22:28:52.962Z,73.20
2022-10-29T22:31:23.007Z,73.33
2022-10-29T22:33:51.379Z,73.52
2022-10-29T22:36:21.380Z,73.66
2022-10-29T22:38:55.023Z,73.53
2022-10-29T22:41:23.899Z,73.67
2022-10-29T22:43:52.030Z,73.60
2022-10-29T22:46:22.281Z,73.74
2022-10-29T22:48:50.473Z,73.87
2022-10-29T22:51:21.579Z,73.94
2022-10-29T22:53:50.433Z,74.02
2022-10-29T22:56:21.718Z,74.14
2022-10-29T22:58:50.546Z,74.15
2022-10-29T23:01:20.883Z,74.15
2022-10-29T23:03:49.237Z,74.09
2022-10-29T23:06:19.280Z,74.23
2022-10-29T23:08:47.968Z,74.27
2022-10-29T23:11:19.523Z,74.26
2022-10-29T23:13:50.565Z,74.42
2022-10-29T23:16:19.023Z,74.55
2022-10-29T23:18:50.192Z,74.67
2022-10-29T23:21:19.095Z,74.78
2022-10-29T23:23:49.718Z,74.83
2022-10-29T23:26:19.153Z,74.90
2022-10-29T23:28:49.792Z,75.04
2022-10-29T23:31:19.437Z,75.09
2022-10-29T23:33:50.045Z,75.08
2022-10-29T23:36:19.608Z,75.15
2022-10-29T23:38:47.820Z,75.24
2022-10-29T23:41:16.127Z,75.23
2022-10-29T23:43:44.304Z,75.20
2022-10-29T23:46:13.972Z,75.28
2022-10-29T23:48:42.846Z,75.39
2022-10-29T23:51:11.269Z,75.45
2022-10-29T23:53:39.528Z,75.41
2022-10-29T23:56:08.360Z,75.47
2022-10-29T23:58:36.570Z,75.47
